createdAt,value
2018-10-06T00:01:05.111Z,100145.00
2018-10-06T00:03:32.632Z,100136.00
2018-10-06T00:06:00.186Z,100142.00
2018-10-06T00:08:27.719Z,100134.00
2018-10-06T00:10:55.254Z,100134.00
2018-10-06T00:13:22.802Z,100137.00
2018-10-06T00:15:50.328Z,100132.00
2018-10-06T00:18:17.870Z,100127.00
2018-10-06T00:20:45.389Z,100126.00
2018-10-06T00:23:12.924Z,100114.00
2018-10-06T00:25:40.442Z,100104.00
2018-10-06T00:28:07.990Z,100111.00
2018-10-06T00:30:35.524Z,100116.00
2018-10-06T00:33:03.042Z,100115.00
2018-10-06T00:35:30.585Z,100109.00
2018-10-06T00:37:58.129Z,100115.00
2018-10-06T00:40:25.652Z,100108.00
2018-10-06T00:42:53.178Z,100108.00
2018-10-06T00:45:20.692Z,100103.00
2018-10-06T00:47:48.222Z,100102.00
2018-10-06T00:50:15.741Z,100097.00
2018-10-06T00:52:43.285Z,100085.00
2018-10-06T00:55:10.811Z,100085.00
2018-10-06T00:57:38.327Z,100091.00
2018-10-06T01:00:05.897Z,100096.00
2018-10-06T01:02:33.433Z,100096.00
2018-10-06T01:05:00.966Z,100081.00
2018-10-06T01:07:28.489Z,100084.00
2018-10-06T01:09:56.005Z,100083.00
2018-10-06T01:12:23.534Z,100074.00
2018-10-06T01:14:51.058Z,100076.00
2018-10-06T01:17:18.594Z,100069.00
2018-10-06T01:19:46.109Z,100076.00
2018-10-06T01:22:13.613Z,100054.00
2018-10-06T01:24:41.131Z,100047.00
2018-10-06T01:27:08.691Z,100061.00
2018-10-06T01:29:36.208Z,100059.00
2018-10-06T01:32:04.661Z,100054.00
2018-10-06T01:34:32.505Z,100049.00
2018-10-06T01:37:00.395Z,100046.00
2018-10-06T01:39:28.137Z,100060.00
2018-10-06T01:41:55.679Z,100057.00
2018-10-06T01:44:23.193Z,100059.00
2018-10-06T01:46:50.930Z,100058.00
2018-10-06T01:49:18.472Z,100058.00
2018-10-06T01:51:46.001Z,100051.00
2018-10-06T01:54:13.513Z,100044.00
2018-10-06T01:56:41.063Z,100040.00
2018-10-06T01:59:08.586Z,100032.00
2018-10-06T02:01:42.929Z,100034.00
2018-10-06T02:04:10.467Z,100028.00
2018-10-06T02:06:38.000Z,100028.00
2018-10-06T02:09:06.446Z,100028.00
2018-10-06T02:11:33.974Z,100026.00
2018-10-06T02:14:01.502Z,100047.00
2018-10-06T02:16:29.213Z,100040.00
2018-10-06T02:18:56.742Z,100034.00
2018-10-06T02:21:24.260Z,100042.00
2018-10-06T02:23:51.785Z,100035.00
2018-10-06T02:26:19.318Z,100027.00
2018-10-06T02:28:46.839Z,100024.00
2018-10-06T02:31:14.359Z,100030.00
2018-10-06T02:33:41.896Z,100028.00
2018-10-06T02:36:09.416Z,100027.00
2018-10-06T02:38:36.959Z,100020.00
2018-10-06T02:41:04.750Z,100008.00
2018-10-06T02:43:32.287Z,100011.00
2018-10-06T02:45:59.811Z,100015.00
2018-10-06T02:48:27.402Z,100017.00
2018-10-06T02:50:54.915Z,100020.00
2018-10-06T02:53:22.413Z,100021.00
2018-10-06T02:55:49.940Z,100022.00
2018-10-06T02:58:17.462Z,100023.00
2018-10-06T03:00:44.967Z,100016.00
2018-10-06T03:03:12.472Z,100028.00
2018-10-06T03:05:39.974Z,100034.00
2018-10-06T03:08:07.492Z,100029.00
2018-10-06T03:10:34.986Z,100020.00
2018-10-06T03:13:02.507Z,100011.00
2018-10-06T03:15:30.014Z,100015.00
2018-10-06T03:17:57.536Z,100012.00
2018-10-06T03:20:25.049Z,100008.00
2018-10-06T03:22:52.709Z,100005.00
2018-10-06T03:25:20.294Z,100013.00
2018-10-06T03:27:47.918Z,100003.00
2018-10-06T03:30:15.479Z,100002.00
2018-10-06T03:32:42.985Z,100013.00
2018-10-06T03:35:10.490Z,99997.00
2018-10-06T03:37:38.015Z,99991.00
2018-10-06T03:40:05.547Z,99993.00
2018-10-06T03:42:33.078Z,99989.00
2018-10-06T03:45:00.585Z,99992.00
2018-10-06T03:47:28.117Z,99995.00
2018-10-06T03:49:55.621Z,99996.00
2018-10-06T03:52:23.145Z,99999.00
2018-10-06T03:54:50.654Z,100000.00
2018-10-06T03:57:18.147Z,100006.00
2018-10-06T03:59:45.649Z,100008.00
2018-10-06T04:02:13.142Z,99994.00
2018-10-06T04:04:40.659Z,100002.00
2018-10-06T04:07:08.281Z,100002.00
2018-10-06T04:09:35.793Z,100002.00
2018-10-06T04:12:03.308Z,99982.00
2018-10-06T04:14:30.824Z,99986.00
2018-10-06T04:16:58.322Z,99984.00
2018-10-06T04:19:25.836Z,99983.00
2018-10-06T04:21:53.335Z,99976.00
2018-10-06T04:24:20.863Z,99965.00
2018-10-06T04:26:48.383Z,99972.00
2018-10-06T04:29:15.906Z,99969.00
2018-10-06T04:31:43.414Z,99965.00
2018-10-06T04:34:10.927Z,99967.00
2018-10-06T04:36:38.466Z,99963.00
2018-10-06T04:39:08.221Z,99966.00
2018-10-06T04:41:35.919Z,99955.00
2018-10-06T04:44:03.478Z,99967.00
2018-10-06T04:46:31.002Z,99965.00
2018-10-06T04:48:58.515Z,99967.00
2018-10-06T04:51:26.033Z,99956.00
2018-10-06T04:53:53.549Z,99962.00
2018-10-06T04:56:21.091Z,99968.00
2018-10-06T04:58:48.612Z,99947.00
2018-10-06T05:01:16.132Z,99943.00
2018-10-06T05:03:43.652Z,99947.00
2018-10-06T05:06:11.161Z,99944.00
2018-10-06T05:08:38.669Z,99929.00
2018-10-06T05:11:06.179Z,99931.00
2018-10-06T05:13:33.702Z,99925.00
2018-10-06T05:16:01.289Z,99934.00
2018-10-06T05:18:28.832Z,99927.00
2018-10-06T05:20:56.617Z,99926.00
2018-10-06T05:23:24.176Z,99934.00
2018-10-06T05:25:51.668Z,99944.00
2018-10-06T05:28:19.198Z,99939.00
2018-10-06T05:30:46.856Z,99936.00
2018-10-06T05:33:14.357Z,99934.00
2018-10-06T05:35:41.869Z,99936.00
2018-10-06T05:38:09.349Z,99940.00
2018-10-06T05:40:36.866Z,99935.00
2018-10-06T05:43:04.449Z,99928.00
2018-10-06T05:45:31.978Z,99936.00
2018-10-06T05:47:59.501Z,99932.00
2018-10-06T05:50:27.038Z,99944.00
2018-10-06T05:52:54.567Z,99939.00
2018-10-06T05:55:22.098Z,99942.00
2018-10-06T05:57:49.633Z,99935.00
2018-10-06T06:00:17.178Z,99944.00
2018-10-06T06:02:44.697Z,99946.00
2018-10-06T06:05:19.070Z,99938.00
2018-10-06T06:07:46.581Z,99936.00
2018-10-06T06:10:14.128Z,99941.00
2018-10-06T06:12:41.943Z,99946.00
2018-10-06T06:15:09.703Z,99938.00
2018-10-06T06:17:38.179Z,99940.00
2018-10-06T06:20:05.731Z,99944.00
2018-10-06T06:22:33.406Z,99946.00
2018-10-06T06:25:00.929Z,99948.00
2018-10-06T06:27:28.731Z,99952.00
2018-10-06T06:29:56.303Z,99951.00
2018-10-06T06:32:23.905Z,99953.00
2018-10-06T06:34:51.373Z,99938.00
2018-10-06T06:37:18.892Z,99944.00
2018-10-06T06:39:46.426Z,99927.00
2018-10-06T06:42:13.942Z,99942.00
2018-10-06T06:44:41.462Z,99935.00
2018-10-06T06:47:08.963Z,99934.00
2018-10-06T06:49:36.669Z,99935.00
2018-10-06T06:52:04.540Z,99935.00
2018-10-06T06:54:32.210Z,99941.00
2018-10-06T06:56:59.724Z,99929.00
2018-10-06T06:59:27.247Z,99931.00
2018-10-06T07:01:54.762Z,99938.00
2018-10-06T07:04:22.566Z,99934.00
2018-10-06T07:06:50.087Z,99931.00
2018-10-06T07:09:17.577Z,99935.00
2018-10-06T07:11:45.073Z,99936.00
2018-10-06T07:14:12.588Z,99937.00
2018-10-06T07:16:40.105Z,99935.00
2018-10-06T07:19:07.663Z,99929.00
2018-10-06T07:21:35.164Z,99936.00
2018-10-06T07:24:02.682Z,99920.00
2018-10-06T07:26:30.203Z,99927.00
2018-10-06T07:28:57.726Z,99924.00
2018-10-06T07:31:25.389Z,99925.00
2018-10-06T07:33:52.893Z,99933.00
2018-10-06T07:36:20.411Z,99937.00
2018-10-06T07:38:47.926Z,99930.00
2018-10-06T07:41:15.431Z,99932.00
2018-10-06T07:43:42.937Z,99937.00
2018-10-06T07:46:10.449Z,99920.00
2018-10-06T07:48:37.941Z,99917.00
2018-10-06T07:51:05.725Z,99912.00
2018-10-06T07:53:33.273Z,99920.00
2018-10-06T07:56:00.779Z,99913.00
2018-10-06T07:58:28.285Z,99916.00
2018-10-06T08:00:55.794Z,99923.00
2018-10-06T08:03:23.295Z,99914.00
2018-10-06T08:05:51.027Z,99915.00
2018-10-06T08:08:18.573Z,99915.00
2018-10-06T08:10:46.246Z,99912.00
2018-10-06T08:13:13.750Z,99919.00
2018-10-06T08:15:41.281Z,99911.00
2018-10-06T08:18:11.910Z,99907.00
2018-10-06T08:20:39.415Z,99912.00
2018-10-06T08:23:15.621Z,99901.00
2018-10-06T08:25:43.140Z,99902.00
2018-10-06T08:28:16.878Z,99900.00
2018-10-06T08:30:44.438Z,99895.00
2018-10-06T08:33:11.917Z,99900.00
2018-10-06T08:35:39.435Z,99895.00
2018-10-06T08:38:07.001Z,99885.00
2018-10-06T08:40:40.934Z,99887.00
2018-10-06T08:43:08.465Z,99891.00
2018-10-06T08:45:35.986Z,99893.00
2018-10-06T08:48:03.501Z,99885.00
2018-10-06T08:50:31.055Z,99883.00
2018-10-06T08:53:10.102Z,99886.00
2018-10-06T08:55:37.634Z,99880.00
2018-10-06T08:58:05.390Z,99879.00
2018-10-06T09:00:32.936Z,99882.00
2018-10-06T09:03:00.441Z,99876.00
2018-10-06T09:05:34.744Z,99874.00
2018-10-06T09:08:02.290Z,99869.00
2018-10-06T09:10:29.830Z,99861.00
2018-10-06T09:12:57.355Z,99863.00
2018-10-06T09:15:24.902Z,99863.00
2018-10-06T09:17:52.496Z,99866.00
2018-10-06T09:20:19.969Z,99864.00
2018-10-06T09:22:47.499Z,99857.00
2018-10-06T09:25:34.279Z,99860.00
2018-10-06T09:28:01.825Z,99850.00
2018-10-06T09:30:29.351Z,99855.00
2018-10-06T09:32:56.882Z,99853.00
2018-10-06T09:35:48.250Z,99843.00
2018-10-06T09:38:15.810Z,99850.00
2018-10-06T09:40:43.342Z,99854.00
2018-10-06T09:43:11.059Z,99847.00
2018-10-06T09:45:38.633Z,99838.00
2018-10-06T09:48:06.195Z,99842.00
2018-10-06T09:50:33.703Z,99843.00
2018-10-06T09:53:01.257Z,99841.00
2018-10-06T09:55:28.822Z,99843.00
2018-10-06T09:57:56.424Z,99836.00
2018-10-06T10:01:30.529Z,99835.00
2018-10-06T10:04:03.940Z,99824.00
2018-10-06T10:06:31.470Z,99817.00
2018-10-06T10:08:58.981Z,99807.00
2018-10-06T10:11:26.513Z,99818.00
2018-10-06T10:13:54.047Z,99807.00
2018-10-06T10:16:21.577Z,99806.00
2018-10-06T10:18:49.114Z,99805.00
2018-10-06T10:21:16.648Z,99800.00
2018-10-06T10:23:44.220Z,99798.00
2018-10-06T10:26:11.695Z,99790.00
2018-10-06T10:28:39.279Z,99786.00
2018-10-06T10:31:06.759Z,99787.00
2018-10-06T10:33:34.288Z,99770.00
2018-10-06T10:36:01.826Z,99773.00
2018-10-06T10:38:29.379Z,99764.00
2018-10-06T10:41:14.245Z,99763.00
2018-10-06T10:43:41.887Z,99754.00
2018-10-06T10:46:09.413Z,99761.00
2018-10-06T10:48:36.934Z,99756.00
2018-10-06T10:51:04.482Z,99748.00
2018-10-06T10:53:31.993Z,99741.00
2018-10-06T10:55:59.541Z,99746.00
2018-10-06T10:58:27.119Z,99733.00
2018-10-06T11:00:54.664Z,99741.00
2018-10-06T11:03:22.201Z,99746.00
2018-10-06T11:05:49.738Z,99752.00
2018-10-06T11:08:17.301Z,99747.00
2018-10-06T11:10:44.835Z,99740.00
2018-10-06T11:13:12.374Z,99743.00
2018-10-06T11:15:39.913Z,99744.00
2018-10-06T11:18:07.456Z,99742.00
2018-10-06T11:20:34.987Z,99738.00
2018-10-06T11:23:02.536Z,99741.00
2018-10-06T11:25:30.063Z,99736.00
2018-10-06T11:27:57.624Z,99734.00
2018-10-06T11:30:25.155Z,99729.00
2018-10-06T11:32:52.678Z,99727.00
2018-10-06T11:35:20.206Z,99725.00
2018-10-06T11:40:55.009Z,99716.00
2018-10-06T11:43:22.521Z,99720.00
2018-10-06T11:45:50.040Z,99712.00
2018-10-06T11:48:18.720Z,99706.00
2018-10-06T11:50:46.321Z,99703.00
2018-10-06T11:53:13.858Z,99701.00
2018-10-06T11:55:42.733Z,99700.00
2018-10-06T11:58:11.806Z,99705.00
2018-10-06T12:00:39.624Z,99702.00
2018-10-06T12:03:07.101Z,99698.00
2018-10-06T12:05:34.668Z,99695.00
2018-10-06T12:08:02.165Z,99692.00
2018-10-06T12:10:30.049Z,99697.00
2018-10-06T12:12:57.565Z,99694.00
2018-10-06T12:15:25.061Z,99689.00
2018-10-06T12:17:52.621Z,99690.00
2018-10-06T12:20:20.274Z,99687.00
2018-10-06T12:22:47.757Z,99681.00
2018-10-06T12:25:15.250Z,99681.00
2018-10-06T12:27:42.754Z,99689.00
2018-10-06T12:30:10.281Z,99689.00
2018-10-06T12:32:37.799Z,99675.00
2018-10-06T12:35:05.341Z,99676.00
2018-10-06T12:37:37.150Z,99677.00
2018-10-06T12:40:04.850Z,99671.00
2018-10-06T12:42:32.374Z,99671.00
2018-10-06T12:44:59.898Z,99666.00
2018-10-06T12:47:27.632Z,99656.00
2018-10-06T12:49:55.152Z,99657.00
2018-10-06T12:52:22.698Z,99648.00
2018-10-06T12:54:50.213Z,99648.00
2018-10-06T12:57:17.743Z,99651.00
2018-10-06T12:59:45.277Z,99643.00
2018-10-06T13:02:12.805Z,99639.00
2018-10-06T13:04:44.267Z,99640.00
2018-10-06T13:07:11.865Z,99630.00
2018-10-06T13:09:39.398Z,99621.00
2018-10-06T13:12:06.932Z,99621.00
2018-10-06T13:14:34.438Z,99616.00
2018-10-06T13:17:01.979Z,99610.00
2018-10-06T13:19:29.506Z,99614.00
2018-10-06T13:21:57.033Z,99612.00
2018-10-06T13:24:24.597Z,99611.00
2018-10-06T13:26:52.150Z,99611.00
2018-10-06T13:29:19.704Z,99608.00
2018-10-06T13:31:47.251Z,99607.00
2018-10-06T13:34:14.761Z,99613.00
2018-10-06T13:36:42.287Z,99608.00
2018-10-06T13:39:10.267Z,99617.00
2018-10-06T13:41:37.807Z,99611.00
2018-10-06T13:44:05.372Z,99606.00
2018-10-06T13:46:32.891Z,99606.00
2018-10-06T13:49:00.503Z,99609.00
2018-10-06T13:51:28.030Z,99601.00
2018-10-06T13:53:55.535Z,99605.00
2018-10-06T13:56:23.051Z,99596.00
2018-10-06T13:58:50.659Z,99603.00
2018-10-06T14:01:18.295Z,99594.00
2018-10-06T14:03:45.967Z,99586.00
2018-10-06T14:06:13.494Z,99590.00
2018-10-06T14:08:41.007Z,99581.00
2018-10-06T14:11:08.639Z,99575.00
2018-10-06T14:13:36.171Z,99571.00
2018-10-06T14:16:03.695Z,99574.00
2018-10-06T14:18:31.208Z,99569.00
2018-10-06T14:20:58.730Z,99576.00
2018-10-06T14:23:26.234Z,99572.00
2018-10-06T14:25:53.750Z,99575.00
2018-10-06T14:28:21.251Z,99568.00
2018-10-06T14:30:48.749Z,99564.00
2018-10-06T14:33:16.253Z,99568.00
2018-10-06T14:35:43.761Z,99562.00
2018-10-06T14:38:11.273Z,99572.00
2018-10-06T14:40:38.812Z,99552.00
2018-10-06T14:43:06.337Z,99566.00
2018-10-06T14:45:33.855Z,99563.00
2018-10-06T14:48:01.378Z,99557.00
2018-10-06T14:50:28.907Z,99551.00
2018-10-06T14:52:56.447Z,99536.00
2018-10-06T14:55:24.006Z,99545.00
2018-10-06T14:57:51.533Z,99539.00
2018-10-06T15:00:19.077Z,99537.00
2018-10-06T15:02:46.609Z,99533.00
2018-10-06T15:05:14.139Z,99539.00
2018-10-06T15:07:41.661Z,99531.00
2018-10-06T15:10:09.191Z,99530.00
2018-10-06T15:12:36.715Z,99525.00
2018-10-06T15:15:04.318Z,99527.00
2018-10-06T15:17:31.829Z,99530.00
2018-10-06T15:19:59.367Z,99517.00
2018-10-06T15:22:26.890Z,99526.00
2018-10-06T15:24:54.428Z,99523.00
2018-10-06T15:27:21.957Z,99522.00
2018-10-06T15:29:49.486Z,99524.00
2018-10-06T15:32:17.014Z,99520.00
2018-10-06T15:34:44.542Z,99519.00
2018-10-06T15:37:12.057Z,99521.00
2018-10-06T15:39:39.610Z,99519.00
2018-10-06T15:42:07.142Z,99521.00
2018-10-06T15:44:34.682Z,99517.00
2018-10-06T15:47:02.213Z,99512.00
2018-10-06T15:49:29.745Z,99513.00
2018-10-06T15:51:57.274Z,99514.00
2018-10-06T15:54:24.807Z,99518.00
2018-10-06T15:56:52.415Z,99510.00
2018-10-06T15:59:19.853Z,99512.00
2018-10-06T16:01:47.432Z,99533.00
2018-10-06T16:04:14.957Z,99537.00
2018-10-06T16:06:42.488Z,99532.00
2018-10-06T16:09:10.036Z,99537.00
2018-10-06T16:11:37.566Z,99527.00
2018-10-06T16:14:05.126Z,99527.00
2018-10-06T16:16:32.642Z,99532.00
2018-10-06T16:19:00.160Z,99527.00
2018-10-06T16:21:27.707Z,99532.00
2018-10-06T16:23:55.233Z,99529.00
2018-10-06T16:26:22.789Z,99526.00
2018-10-06T16:28:50.336Z,99530.00
2018-10-06T16:31:17.858Z,99537.00
2018-10-06T16:33:45.404Z,99529.00
2018-10-06T16:36:12.931Z,99523.00
2018-10-06T16:38:40.480Z,99521.00
2018-10-06T16:41:08.054Z,99531.00
2018-10-06T16:43:35.566Z,99529.00
2018-10-06T16:46:03.123Z,99537.00
2018-10-06T16:48:30.633Z,99533.00
2018-10-06T16:50:58.149Z,99520.00
2018-10-06T16:53:25.660Z,99529.00
2018-10-06T16:55:53.179Z,99530.00
2018-10-06T16:58:20.695Z,99538.00
2018-10-06T17:00:48.209Z,99528.00
2018-10-06T17:03:15.718Z,99539.00
2018-10-06T17:05:43.223Z,99541.00
2018-10-06T17:08:10.733Z,99535.00
2018-10-06T17:10:38.229Z,99533.00
2018-10-06T17:13:05.769Z,99532.00
2018-10-06T17:15:33.282Z,99534.00
2018-10-06T17:18:00.798Z,99537.00
2018-10-06T17:20:28.314Z,99539.00
2018-10-06T17:22:55.817Z,99541.00
2018-10-06T17:25:23.354Z,99535.00
2018-10-06T17:27:50.851Z,99541.00
2018-10-06T17:30:18.354Z,99540.00
2018-10-06T17:32:45.854Z,99536.00
2018-10-06T17:35:13.549Z,99540.00
2018-10-06T17:37:41.058Z,99534.00
2018-10-06T17:40:08.669Z,99539.00
2018-10-06T17:42:36.208Z,99537.00
2018-10-06T17:45:03.789Z,99537.00
2018-10-06T17:47:31.327Z,99543.00
2018-10-06T17:49:58.972Z,99538.00
2018-10-06T17:52:26.362Z,99542.00
2018-10-06T17:54:53.874Z,99542.00
2018-10-06T17:57:21.460Z,99537.00
2018-10-06T17:59:48.913Z,99544.00
2018-10-06T18:02:16.435Z,99545.00
2018-10-06T18:04:44.010Z,99533.00
2018-10-06T18:07:11.501Z,99541.00
2018-10-06T18:09:39.009Z,99538.00
2018-10-06T18:12:06.553Z,99536.00
2018-10-06T18:14:34.163Z,99536.00
2018-10-06T18:17:01.648Z,99535.00
2018-10-06T18:19:29.159Z,99536.00
2018-10-06T18:21:56.679Z,99546.00
2018-10-06T18:24:24.207Z,99543.00
2018-10-06T18:26:51.713Z,99546.00
2018-10-06T18:29:19.330Z,99541.00
2018-10-06T18:31:46.770Z,99550.00
2018-10-06T18:34:14.274Z,99547.00
2018-10-06T18:36:41.848Z,99550.00
2018-10-06T18:39:09.322Z,99544.00
2018-10-06T18:41:36.881Z,99538.00
2018-10-06T18:44:04.396Z,99544.00
2018-10-06T18:46:32.079Z,99551.00
2018-10-06T18:48:59.600Z,99547.00
2018-10-06T18:51:27.132Z,99549.00
2018-10-06T18:53:54.671Z,99542.00
2018-10-06T18:56:22.183Z,99547.00
2018-10-06T18:58:49.711Z,99547.00
2018-10-06T19:01:17.261Z,99555.00
2018-10-06T19:03:44.933Z,99550.00
2018-10-06T19:06:12.354Z,99566.00
2018-10-06T19:08:39.857Z,99556.00
2018-10-06T19:11:07.417Z,99552.00
2018-10-06T19:13:34.962Z,99536.00
2018-10-06T19:16:02.511Z,99534.00
2018-10-06T19:18:30.038Z,99543.00
2018-10-06T19:20:57.606Z,99536.00
2018-10-06T19:23:25.179Z,99547.00
2018-10-06T19:25:52.753Z,99541.00
2018-10-06T19:28:20.307Z,99536.00
2018-10-06T19:30:47.838Z,99537.00
2018-10-06T19:33:15.390Z,99539.00
2018-10-06T19:35:42.929Z,99540.00
2018-10-06T19:38:10.530Z,99539.00
2018-10-06T19:40:38.077Z,99535.00
2018-10-06T19:43:11.998Z,99540.00
2018-10-06T19:45:39.590Z,99544.00
2018-10-06T19:48:07.082Z,99540.00
2018-10-06T19:50:34.666Z,99544.00
2018-10-06T19:53:02.172Z,99539.00
2018-10-06T19:55:29.707Z,99538.00
2018-10-06T19:57:57.233Z,99547.00
2018-10-06T20:00:24.764Z,99540.00
2018-10-06T20:02:52.274Z,99546.00
2018-10-06T20:05:19.823Z,99547.00
2018-10-06T20:07:47.344Z,99543.00
2018-10-06T20:10:25.012Z,99545.00
2018-10-06T20:13:00.447Z,99542.00
2018-10-06T20:18:34.375Z,99536.00
2018-10-06T20:21:07.770Z,99530.00
2018-10-06T20:23:35.297Z,99532.00
2018-10-06T20:26:02.850Z,99541.00
2018-10-06T20:28:47.019Z,99536.00
2018-10-06T20:31:14.558Z,99528.00
2018-10-06T20:33:42.097Z,99532.00
2018-10-06T20:36:09.617Z,99543.00
2018-10-06T20:38:37.146Z,99536.00
2018-10-06T20:41:05.062Z,99534.00
2018-10-06T20:43:32.605Z,99532.00
2018-10-06T20:46:00.163Z,99526.00
2018-10-06T20:48:27.700Z,99527.00
2018-10-06T20:50:55.339Z,99523.00
2018-10-06T20:53:22.882Z,99522.00
2018-10-06T20:55:50.422Z,99516.00
2018-10-06T20:58:17.953Z,99525.00
2018-10-06T21:00:52.878Z,99518.00
2018-10-06T21:03:20.386Z,99527.00
2018-10-06T21:05:47.934Z,99522.00
2018-10-06T21:08:15.461Z,99534.00
2018-10-06T21:10:43.035Z,99529.00
2018-10-06T21:13:10.571Z,99530.00
2018-10-06T21:15:38.117Z,99525.00
2018-10-06T21:18:06.734Z,99533.00
2018-10-06T21:20:34.369Z,99533.00
2018-10-06T21:23:01.877Z,99531.00
2018-10-06T21:25:29.405Z,99527.00
2018-10-06T21:33:58.283Z,99520.00
2018-10-06T21:36:25.813Z,99517.00
2018-10-06T21:38:57.499Z,99520.00
2018-10-06T21:41:24.923Z,99521.00
2018-10-06T21:43:55.567Z,99520.00
2018-10-06T21:46:23.078Z,99518.00
2018-10-06T21:48:50.591Z,99511.00
2018-10-06T21:51:18.113Z,99516.00
2018-10-06T21:53:45.631Z,99512.00
2018-10-06T21:56:13.143Z,99512.00
2018-10-06T21:58:40.720Z,99502.00
2018-10-06T22:01:08.448Z,99512.00
2018-10-06T22:03:36.105Z,99506.00
2018-10-06T22:06:03.706Z,99499.00
2018-10-06T22:08:31.234Z,99508.00
2018-10-06T22:10:58.746Z,99498.00
2018-10-06T22:13:26.678Z,99498.00
2018-10-06T22:15:54.186Z,99498.00
2018-10-06T22:18:21.694Z,99501.00
2018-10-06T22:20:49.189Z,99513.00
2018-10-06T22:23:16.736Z,99503.00
2018-10-06T22:25:44.456Z,99501.00
2018-10-06T22:28:11.974Z,99509.00
2018-10-06T22:30:42.990Z,99506.00
2018-10-06T22:33:10.519Z,99497.00
2018-10-06T22:35:38.025Z,99506.00
2018-10-06T22:38:05.547Z,99499.00
2018-10-06T22:40:33.122Z,99496.00
2018-10-06T22:43:00.658Z,99491.00
2018-10-06T22:45:28.205Z,99487.00
2018-10-06T22:47:55.754Z,99500.00
2018-10-06T22:50:23.292Z,99494.00
2018-10-06T22:52:54.541Z,99497.00
2018-10-06T22:55:22.841Z,99492.00
2018-10-06T22:57:50.364Z,99489.00
2018-10-06T23:00:17.894Z,99485.00
2018-10-06T23:02:45.450Z,99480.00
2018-10-06T23:05:12.985Z,99482.00
2018-10-06T23:07:40.527Z,99480.00
2018-10-06T23:10:08.076Z,99483.00
2018-10-06T23:12:35.634Z,99474.00
2018-10-06T23:15:03.193Z,99475.00
2018-10-06T23:17:30.739Z,99479.00
2018-10-06T23:19:58.306Z,99478.00
2018-10-06T23:22:25.844Z,99475.00
2018-10-06T23:24:53.375Z,99472.00
2018-10-06T23:27:20.928Z,99481.00
2018-10-06T23:29:48.481Z,99487.00
2018-10-06T23:32:16.031Z,99482.00
2018-10-06T23:34:43.587Z,99481.00
2018-10-06T23:37:11.171Z,99484.00
2018-10-06T23:39:38.723Z,99486.00
2018-10-06T23:42:06.336Z,99479.00
2018-10-06T23:44:33.853Z,99477.00
2018-10-06T23:47:01.535Z,99477.00
2018-10-06T23:49:29.049Z,99474.00
2018-10-06T23:51:56.567Z,99472.00
2018-10-06T23:54:24.081Z,99479.00
2018-10-06T23:56:51.644Z,99469.00
2018-10-06T23:59:19.174Z,99479.00
